Time;durP1;ratioP1;P1;durP2;ratioP2;P2;SDS_P1;SDS_P2;PMS_P1;PMS_P2;Temp;Humidity;BMP_temperature;BMP_pressure;BME280_temperature;BME280_humidity;BME280_pressure;Samples;Min_cycle;Max_cycle;Signal;HPM_P1;HPM_P2
2020/12/10 00:01:39;;;;;;;28.83;16.70;;;1.20;99.90;;;;;;4955921;28;20218;-43
2020/12/10 00:04:06;;;;;;;26.00;13.55;;;1.20;99.90;;;;;;4955242;28;20211;-47
2020/12/10 00:06:33;;;;;;;44.72;20.67;;;1.20;99.90;;;;;;4955706;28;20219;-42
2020/12/10 00:09:00;;;;;;;45.72;20.67;;;1.10;99.90;;;;;;4955151;28;20299;-50
2020/12/10 00:11:27;;;;;;;35.15;16.13;;;1.10;99.90;;;;;;4955618;28;20184;-43
2020/12/10 00:13:54;;;;;;;36.45;17.42;;;1.00;99.90;;;;;;4955837;28;20258;-45
2020/12/10 00:16:22;;;;;;;43.88;22.42;;;1.10;99.90;;;;;;4955809;28;20208;-42
2020/12/10 00:18:50;;;;;;;36.83;19.65;;;1.00;99.90;;;;;;4956049;28;20286;-44
2020/12/10 00:21:20;;;;;;;37.75;19.45;;;1.10;99.90;;;;;;4955560;28;20203;-46
2020/12/10 00:23:47;;;;;;;17.42;13.85;;;0.90;99.90;;;;;;4955825;28;20239;-43
2020/12/10 00:26:15;;;;;;;43.92;21.55;;;1.00;99.90;;;;;;4956100;28;20211;-43
2020/12/10 00:28:42;;;;;;;39.67;18.10;;;1.00;99.90;;;;;;4955909;28;20215;-44
2020/12/10 00:31:09;;;;;;;45.20;20.17;;;0.90;99.90;;;;;;4955680;28;20180;-44
2020/12/10 00:33:38;;;;;;;44.28;18.10;;;1.00;99.90;;;;;;4955244;28;20192;-43
2020/12/10 00:36:05;;;;;;;31.50;18.13;;;0.90;99.90;;;;;;4954676;28;20212;-51
2020/12/10 00:38:32;;;;;;;31.67;16.88;;;0.80;99.90;;;;;;4955048;28;20180;-44
2020/12/10 00:41:00;;;;;;;27.98;15.98;;;0.80;99.90;;;;;;4955135;28;20679;-43
2020/12/10 00:43:27;;;;;;;23.30;15.20;;;0.90;99.90;;;;;;4954969;28;20464;-41
2020/12/10 00:45:54;;;;;;;43.22;19.27;;;0.80;99.90;;;;;;4954763;28;20705;-44
2020/12/10 00:48:22;;;;;;;40.05;20.63;;;0.90;99.90;;;;;;4954975;28;20251;-45
2020/12/10 00:50:51;;;;;;;25.05;17.20;;;0.90;99.90;;;;;;4954907;28;20287;-47
2020/12/10 00:53:18;;;;;;;16.13;10.65;;;0.90;99.90;;;;;;4954959;28;20601;-43
2020/12/10 00:55:45;;;;;;;35.72;21.80;;;0.80;99.90;;;;;;4953131;29;20219;-43
2020/12/10 00:58:12;;;;;;;32.50;17.55;;;0.80;99.90;;;;;;4954424;28;20181;-43
2020/12/10 01:00:40;;;;;;;34.95;13.38;;;0.80;99.90;;;;;;4954461;28;20543;-43
2020/12/10 01:03:07;;;;;;;38.47;19.23;;;0.70;99.90;;;;;;4954657;28;20181;-45
2020/12/10 01:05:34;;;;;;;43.53;18.58;;;0.70;99.90;;;;;;4954551;28;20220;-49
2020/12/10 01:08:02;;;;;;;29.83;14.98;;;0.70;99.90;;;;;;4954724;28;20239;-48
2020/12/10 01:10:29;;;;;;;18.23;12.95;;;0.70;99.90;;;;;;4954416;28;20200;-43
2020/12/10 01:12:57;;;;;;;31.80;17.77;;;0.70;99.90;;;;;;4954122;28;20598;-45
2020/12/10 01:15:24;;;;;;;37.33;16.50;;;0.80;99.90;;;;;;4954177;28;20211;-46
2020/12/10 01:17:51;;;;;;;51.72;20.85;;;0.80;99.90;;;;;;4954297;28;20180;-46
2020/12/10 01:20:18;;;;;;;28.52;17.58;;;0.80;99.90;;;;;;4954127;28;20181;-48
2020/12/10 01:22:46;;;;;;;27.58;13.73;;;0.80;99.90;;;;;;4954399;28;20185;-44
2020/12/10 01:25:14;;;;;;;51.58;20.17;;;0.80;99.90;;;;;;4954946;28;20212;-44
2020/12/10 01:27:41;;;;;;;52.58;20.45;;;0.80;99.90;;;;;;4955124;28;20196;-42
2020/12/10 01:30:08;;;;;;;44.95;16.35;;;0.60;99.90;;;;;;4955194;28;20192;-42
2020/12/10 01:32:35;;;;;;;38.00;13.25;;;0.50;99.90;;;;;;4955333;28;20184;-46
2020/12/10 01:35:04;;;;;;;38.65;19.45;;;0.50;99.90;;;;;;4955259;28;20221;-46
2020/12/10 01:37:32;;;;;;;51.58;21.10;;;0.50;99.90;;;;;;4955013;28;20264;-44
2020/12/10 01:39:59;;;;;;;22.42;12.27;;;0.50;99.90;;;;;;4955022;28;20190;-45
2020/12/10 01:42:30;;;;;;;34.45;14.50;;;0.40;99.90;;;;;;4955176;28;20187;-43
2020/12/10 01:45:00;;;;;;;44.60;16.67;;;0.50;99.90;;;;;;4954661;28;20310;-44
2020/12/10 01:47:31;;;;;;;32.97;16.75;;;0.40;99.90;;;;;;4954923;28;20208;-43
2020/12/10 01:49:58;;;;;;;34.33;16.70;;;0.40;99.90;;;;;;4954968;28;20180;-45
2020/12/10 01:52:25;;;;;;;23.85;14.07;;;0.40;99.90;;;;;;4955110;28;20255;-43
2020/12/10 01:54:52;;;;;;;22.00;16.55;;;0.30;99.90;;;;;;4954749;28;20212;-46
2020/12/10 01:57:20;;;;;;;35.03;17.55;;;0.30;99.90;;;;;;4954958;28;20187;-48
2020/12/10 01:59:49;;;;;;;33.70;18.98;;;0.30;99.90;;;;;;4954854;28;20219;-42
2020/12/10 02:02:16;;;;;;;29.83;16.55;;;0.40;99.90;;;;;;4954887;28;20199;-42
2020/12/10 02:04:44;;;;;;;43.03;18.95;;;0.30;99.90;;;;;;4953375;29;20564;-44
2020/12/10 02:07:11;;;;;;;34.05;16.75;;;0.30;99.90;;;;;;4954654;28;20200;-41
2020/12/10 02:09:38;;;;;;;33.10;13.35;;;0.30;99.90;;;;;;4955030;28;20631;-46
2020/12/10 02:12:05;;;;;;;24.58;15.55;;;0.30;99.90;;;;;;4954760;28;20191;-47
2020/12/10 02:14:35;;;;;;;34.10;15.55;;;0.30;99.90;;;;;;4954451;28;20176;-47
2020/12/10 02:17:04;;;;;;;15.48;7.18;;;0.20;99.90;;;;;;4954260;28;20187;-45
2020/12/10 02:19:32;;;;;;;25.10;14.27;;;0.20;99.90;;;;;;4953371;28;20177;-46
2020/12/10 02:21:59;;;;;;;30.02;14.32;;;0.20;99.90;;;;;;4954151;28;20196;-46
2020/12/10 02:24:27;;;;;;;30.65;15.05;;;0.20;99.90;;;;;;4954537;28;20180;-47
2020/12/10 02:26:54;;;;;;;27.10;13.52;;;0.20;99.90;;;;;;4956244;28;20295;-46
2020/12/10 02:29:21;;;;;;;38.63;17.50;;;0.20;99.90;;;;;;4958482;28;20268;-44
2020/12/10 02:31:48;;;;;;;48.28;20.35;;;0.30;99.90;;;;;;4958548;29;20218;-43
2020/12/10 02:34:16;;;;;;;25.00;9.48;;;0.30;99.90;;;;;;4958162;28;20656;-43
2020/12/10 02:36:43;;;;;;;34.67;13.63;;;0.20;99.90;;;;;;4957952;28;20204;-52
2020/12/10 02:39:10;;;;;;;30.77;16.83;;;0.20;99.90;;;;;;4957991;28;20180;-46
2020/12/10 02:41:39;;;;;;;22.58;15.63;;;0.20;99.90;;;;;;4958323;28;20271;-47
2020/12/10 02:44:06;;;;;;;46.60;21.10;;;0.30;99.90;;;;;;4958134;28;20204;-48
2020/12/10 02:46:33;;;;;;;37.05;16.20;;;0.30;99.90;;;;;;4958442;28;20215;-47
2020/12/10 02:49:01;;;;;;;37.15;19.45;;;0.30;99.90;;;;;;4957877;28;20206;-49
2020/12/10 02:51:28;;;;;;;30.25;14.02;;;0.30;99.90;;;;;;4957947;28;20196;-52
2020/12/10 02:53:57;;;;;;;39.25;17.25;;;0.40;99.90;;;;;;4958450;28;20501;-49
2020/12/10 02:56:24;;;;;;;23.60;15.75;;;0.40;99.90;;;;;;4958442;29;20808;-48
2020/12/10 02:58:52;;;;;;;35.88;16.20;;;0.40;99.90;;;;;;4958254;28;20194;-45
2020/12/10 03:01:19;;;;;;;19.40;11.30;;;0.40;99.90;;;;;;4957818;28;20180;-47
2020/12/10 03:03:47;;;;;;;21.58;12.57;;;0.30;99.90;;;;;;4973524;23;20501;-79
2020/12/10 03:06:14;;;;;;;49.08;19.90;;;0.30;99.90;;;;;;4965132;28;20180;-79
2020/12/10 03:08:41;;;;;;;25.05;12.57;;;0.30;99.90;;;;;;4965125;28;20198;-80
2020/12/10 03:11:09;;;;;;;35.05;18.73;;;0.30;99.90;;;;;;4963574;29;20200;-80
2020/12/10 03:13:37;;;;;;;31.33;17.17;;;0.30;99.90;;;;;;4963871;28;20216;-80
2020/12/10 03:16:05;;;;;;;26.00;18.25;;;0.30;99.90;;;;;;4963295;28;20204;-80
2020/12/10 03:18:33;;;;;;;40.38;19.58;;;0.30;99.90;;;;;;4962026;28;20196;-78
2020/12/10 03:21:00;;;;;;;25.70;15.27;;;0.40;99.90;;;;;;4968950;28;20208;-78
2020/12/10 03:23:28;;;;;;;38.70;16.67;;;0.50;99.90;;;;;;4981777;28;20204;-78
2020/12/10 03:25:55;;;;;;;57.20;23.52;;;0.50;99.90;;;;;;4982111;28;20216;-78
2020/12/10 03:28:22;;;;;;;42.45;18.00;;;0.50;99.90;;;;;;4981419;28;20215;-78
2020/12/10 03:30:50;;;;;;;53.60;26.42;;;0.50;99.90;;;;;;4981878;28;20183;-77
2020/12/10 03:33:18;;;;;;;46.08;22.98;;;0.60;99.90;;;;;;4979058;28;20192;-78
2020/12/10 03:35:46;;;;;;;21.27;14.98;;;0.60;99.90;;;;;;4962619;28;20191;-78
2020/12/10 03:38:13;;;;;;;46.28;16.42;;;0.60;99.90;;;;;;4961745;28;20181;-79
2020/12/10 03:40:41;;;;;;;33.88;17.90;;;0.60;99.90;;;;;;4961267;28;20192;-79
2020/12/10 03:43:08;;;;;;;27.60;14.05;;;0.60;99.90;;;;;;4962860;28;20208;-79
2020/12/10 03:45:35;;;;;;;33.28;22.23;;;0.50;99.90;;;;;;4964046;28;20206;-78
2020/12/10 03:48:03;;;;;;;53.88;24.40;;;0.50;99.90;;;;;;4962793;28;20259;-79
2020/12/10 03:50:31;;;;;;;56.08;19.20;;;0.50;99.90;;;;;;4962971;28;20296;-79
2020/12/10 03:52:58;;;;;;;31.13;13.70;;;0.50;99.90;;;;;;4962563;28;20191;-79
2020/12/10 03:55:27;;;;;;;28.95;16.35;;;0.50;99.90;;;;;;4961592;28;20212;-79
2020/12/10 03:57:54;;;;;;;26.52;16.00;;;0.40;99.90;;;;;;4960539;29;20219;-80
2020/12/10 04:00:22;;;;;;;13.68;10.88;;;0.50;99.90;;;;;;4962627;28;20210;-80
2020/12/10 04:02:49;;;;;;;31.50;15.57;;;0.40;99.90;;;;;;4962115;28;20169;-78
2020/12/10 04:05:17;;;;;;;34.40;18.65;;;0.50;99.90;;;;;;4961052;28;20224;-79
2020/12/10 04:07:45;;;;;;;42.25;18.77;;;0.50;99.90;;;;;;4961457;28;20211;-80
2020/12/10 04:10:12;;;;;;;21.30;12.57;;;0.40;99.90;;;;;;4962190;28;20173;-78
2020/12/10 04:12:40;;;;;;;30.33;13.45;;;0.40;99.90;;;;;;4961622;28;20184;-80
2020/12/10 04:15:07;;;;;;;34.38;13.88;;;0.40;99.90;;;;;;4960835;28;20227;-80
2020/12/10 04:17:35;;;;;;;39.50;20.38;;;0.30;99.90;;;;;;4959286;28;20200;-80
2020/12/10 04:20:03;;;;;;;21.80;11.07;;;0.30;99.90;;;;;;4961177;28;20279;-77
2020/12/10 04:22:31;;;;;;;37.42;15.77;;;0.40;99.90;;;;;;4961564;28;20192;-80
2020/12/10 04:24:59;;;;;;;42.83;22.20;;;0.40;99.90;;;;;;4961706;28;20706;-79
2020/12/10 04:27:26;;;;;;;29.13;11.65;;;0.40;99.90;;;;;;4960195;28;20224;-79
2020/12/10 04:29:53;;;;;;;32.15;19.48;;;0.40;99.90;;;;;;4960261;28;20203;-77
2020/12/10 04:32:20;;;;;;;44.30;19.80;;;0.40;99.90;;;;;;4960002;28;20192;-79
2020/12/10 04:34:48;;;;;;;34.60;18.05;;;0.40;99.90;;;;;;4960243;28;20239;-80
2020/12/10 04:37:16;;;;;;;36.95;17.02;;;0.50;99.90;;;;;;4961891;28;20196;-78
2020/12/10 04:39:47;;;;;;;33.08;14.23;;;0.50;99.90;;;;;;4960801;28;20177;-79
2020/12/10 04:42:17;;;;;;;30.58;15.38;;;0.50;99.90;;;;;;4960395;28;20215;-79
2020/12/10 04:44:46;;;;;;;39.33;18.38;;;0.20;99.90;;;;;;4959290;28;20211;-79
2020/12/10 04:47:14;;;;;;;29.98;14.82;;;0.20;99.90;;;;;;4960655;28;20208;-79
2020/12/10 04:49:42;;;;;;;32.58;15.35;;;0.20;99.90;;;;;;4960213;28;20196;-79
2020/12/10 04:52:11;;;;;;;35.60;14.38;;;0.20;99.90;;;;;;4960863;28;20647;-81
2020/12/10 04:54:38;;;;;;;32.72;13.98;;;0.20;99.90;;;;;;4961031;28;20212;-78
2020/12/10 04:57:10;;;;;;;26.08;12.27;;;0.20;99.90;;;;;;4959462;28;20333;-78
2020/12/10 04:59:39;;;;;;;26.25;11.95;;;0.20;99.90;;;;;;4965988;28;20187;-78
2020/12/10 05:02:10;;;;;;;24.27;18.58;;;0.20;99.90;;;;;;4971654;28;20196;-78
2020/12/10 05:04:38;;;;;;;35.53;13.88;;;0.20;99.90;;;;;;4973356;28;20211;-79
2020/12/10 05:07:07;;;;;;;33.38;11.65;;;0.20;99.90;;;;;;4964647;28;20228;-79
2020/12/10 05:09:37;;;;;;;29.65;15.57;;;0.30;99.90;;;;;;4969020;28;20235;-79
2020/12/10 05:12:17;;;;;;;34.28;15.88;;;0.30;99.90;;;;;;4971055;28;20192;-78
2020/12/10 05:14:46;;;;;;;47.17;17.77;;;0.20;99.90;;;;;;4973441;28;20211;-79
2020/12/10 05:17:15;;;;;;;33.85;15.13;;;0.30;99.90;;;;;;4971454;29;20191;-78
2020/12/10 05:19:43;;;;;;;50.83;12.27;;;0.30;99.90;;;;;;4975831;28;20212;-78
2020/12/10 05:22:11;;;;;;;27.92;12.60;;;0.30;99.90;;;;;;4977098;28;20188;-78
2020/12/10 05:24:38;;;;;;;39.05;19.25;;;0.20;99.90;;;;;;4976791;29;20215;-79
2020/12/10 05:27:26;;;;;;;31.33;13.10;;;0.10;99.90;;;;;;4960871;28;20183;-79
2020/12/10 05:30:07;;;;;;;45.33;15.82;;;0.10;99.90;;;;;;4954935;28;20212;-79
2020/12/10 05:33:13;;;;;;;41.47;15.95;;;0.20;99.90;;;;;;4958290;29;20294;-80
2020/12/10 05:35:48;;;;;;;20.95;10.80;;;0.20;99.90;;;;;;4951115;29;20211;-78
2020/12/10 05:38:34;;;;;;;35.20;21.02;;;0.10;99.90;;;;;;4967212;28;20603;-78
2020/12/10 05:41:22;;;;;;;25.10;12.98;;;0.20;99.90;;;;;;4959058;29;20718;-80
2020/12/10 05:44:18;;;;;;;44.63;15.38;;;0.30;99.90;;;;;;4957949;29;20656;-79
2020/12/10 05:47:10;;;;;;;56.00;15.40;;;0.20;99.90;;;;;;4961858;29;20202;-79
2020/12/10 05:49:41;;;;;;;26.23;11.43;;;0.20;99.90;;;;;;4958361;29;20251;-80
2020/12/10 05:52:17;;;;;;;27.42;13.13;;;0.20;99.90;;;;;;4958511;28;20199;-77
2020/12/10 05:54:55;;;;;;;26.33;13.85;;;0.20;99.90;;;;;;4957444;28;20703;-78
2020/12/10 05:57:23;;;;;;;34.20;12.27;;;0.20;99.90;;;;;;4958940;28;20239;-78
2020/12/10 05:59:50;;;;;;;39.38;16.42;;;0.20;99.90;;;;;;4961713;28;20180;-78
2020/12/10 06:02:19;;;;;;;31.85;18.63;;;0.20;99.90;;;;;;4963247;28;20177;-80
2020/12/10 06:04:47;;;;;;;35.60;15.10;;;0.20;99.90;;;;;;4963317;29;20603;-79
2020/12/10 06:07:14;;;;;;;35.95;18.58;;;0.20;99.90;;;;;;4968217;28;20184;-78
2020/12/10 06:09:42;;;;;;;24.33;12.45;;;0.20;99.90;;;;;;4973022;29;20268;-78
2020/12/10 06:12:10;;;;;;;31.30;15.82;;;0.10;99.90;;;;;;4971023;28;20247;-78
2020/12/10 06:14:51;;;;;;;34.67;12.63;;;0.10;99.90;;;;;;4957425;28;20262;-77
2020/12/10 06:17:20;;;;;;;22.00;12.85;;;0.10;99.90;;;;;;4956798;29;20192;-79
2020/12/10 06:19:48;;;;;;;33.28;18.20;;;0.20;99.90;;;;;;4959772;28;20567;-78
2020/12/10 06:22:26;;;;;;;31.25;12.40;;;0.10;99.90;;;;;;4958270;29;20180;-80
2020/12/10 06:24:54;;;;;;;28.52;15.27;;;0.10;99.90;;;;;;4961515;28;20239;-81
2020/12/10 06:27:24;;;;;;;29.45;13.98;;;0.10;99.90;;;;;;4963160;29;20235;-80
2020/12/10 06:30:10;;;;;;;24.52;15.35;;;0.10;99.90;;;;;;4975102;28;20211;-80
2020/12/10 06:32:45;;;;;;;32.50;14.50;;;0.20;99.90;;;;;;4977335;28;20184;-80
2020/12/10 06:35:34;;;;;;;22.95;16.60;;;0.20;99.90;;;;;;4976529;28;20247;-79
2020/12/10 06:38:10;;;;;;;26.88;12.10;;;0.30;99.90;;;;;;4970624;29;20215;-81
2020/12/10 06:40:43;;;;;;;28.63;12.52;;;0.30;99.90;;;;;;4969531;28;20200;-80
2020/12/10 06:43:11;;;;;;;30.15;11.68;;;0.30;99.90;;;;;;4966837;28;20213;-78
2020/12/10 06:45:39;;;;;;;32.60;14.98;;;0.20;99.90;;;;;;4961734;29;20210;-80
2020/12/10 06:48:14;;;;;;;35.90;15.23;;;0.30;99.90;;;;;;4960009;29;20287;-81
2020/12/10 06:50:43;;;;;;;23.92;14.18;;;0.30;99.90;;;;;;4945116;29;20230;-80
2020/12/10 06:53:15;;;;;;;30.25;18.60;;;0.20;99.90;;;;;;4963448;28;20196;-80
2020/12/10 06:56:07;;;;;;;22.50;13.00;;;0.20;99.90;;;;;;4959623;29;20283;-80
2020/12/10 06:58:49;;;;;;;28.98;14.98;;;0.20;99.90;;;;;;4960532;28;20643;-80
2020/12/10 07:01:34;;;;;;;17.58;10.45;;;0.10;99.90;;;;;;4958382;29;20204;-79
2020/12/10 07:04:45;;;;;;;21.15;11.68;;;0.10;99.90;;;;;;4960655;28;20415;-80
2020/12/10 07:07:15;;;;;;;21.23;13.05;;;0.10;99.90;;;;;;4959330;29;20267;-80
2020/12/10 07:09:49;;;;;;;35.20;14.43;;;0.20;99.90;;;;;;4958670;29;20222;-80
2020/12/10 07:12:24;;;;;;;27.92;14.35;;;0.30;99.90;;;;;;4961238;28;20212;-80
2020/12/10 07:15:09;;;;;;;46.45;18.63;;;0.30;99.90;;;;;;4963460;28;20235;-79
2020/12/10 07:17:36;;;;;;;27.08;10.13;;;0.40;99.90;;;;;;4961537;29;20216;-78
2020/12/10 07:20:05;;;;;;;18.55;11.57;;;0.40;99.90;;;;;;4964548;28;20271;-79
2020/12/10 07:22:32;;;;;;;20.05;14.60;;;0.30;99.90;;;;;;4963868;28;20208;-79
2020/12/10 07:24:59;;;;;;;41.00;17.25;;;0.40;99.90;;;;;;4962439;28;20212;-79
2020/12/10 07:27:27;;;;;;;33.88;14.50;;;0.40;99.90;;;;;;4964156;28;20263;-78
2020/12/10 07:29:54;;;;;;;25.25;15.18;;;0.40;99.90;;;;;;4962794;28;20192;-80
2020/12/10 07:32:22;;;;;;;25.55;17.45;;;0.40;99.90;;;;;;4963445;28;20609;-79
2020/12/10 07:34:49;;;;;;;37.15;17.02;;;0.40;99.90;;;;;;4961587;28;20212;-80
2020/12/10 07:37:24;;;;;;;25.05;15.65;;;0.50;99.90;;;;;;4964426;28;20263;-79
2020/12/10 07:39:51;;;;;;;34.97;15.75;;;0.50;99.90;;;;;;4959928;28;20207;-79
2020/12/10 07:42:21;;;;;;;38.20;16.85;;;0.60;99.90;;;;;;4943356;29;20571;-78
2020/12/10 07:44:51;;;;;;;38.15;17.00;;;0.50;99.90;;;;;;4940954;29;20213;-80
2020/12/10 07:47:18;;;;;;;49.42;14.93;;;0.30;99.90;;;;;;4945741;29;20223;-80
2020/12/10 07:49:45;;;;;;;27.90;16.23;;;0.20;99.90;;;;;;4943013;29;20219;-80
2020/12/10 07:52:13;;;;;;;46.95;19.65;;;0.30;99.90;;;;;;4942299;29;20197;-79
2020/12/10 07:55:00;;;;;;;42.05;18.60;;;0.40;99.90;;;;;;4942886;29;20248;-80
2020/12/10 07:57:32;;;;;;;44.75;16.85;;;0.40;99.90;;;;;;4942562;29;20744;-78
2020/12/10 08:00:05;;;;;;;29.73;13.85;;;0.30;99.90;;;;;;4956007;28;20185;-79
2020/12/10 08:03:05;;;;;;;39.67;17.15;;;0.40;99.90;;;;;;4939856;29;20230;-79
2020/12/10 08:05:33;;;;;;;47.50;17.60;;;0.50;99.90;;;;;;4942829;29;20427;-78
2020/12/10 08:08:01;;;;;;;30.33;14.88;;;0.60;99.90;;;;;;4940477;29;20221;-79
2020/12/10 08:10:31;;;;;;;36.85;21.20;;;0.60;99.90;;;;;;4941562;29;20208;-81
2020/12/10 08:13:12;;;;;;;22.00;13.65;;;0.60;99.90;;;;;;4943492;29;20188;-81
2020/12/10 08:15:41;;;;;;;31.83;16.33;;;0.60;99.90;;;;;;4942424;29;20211;-79
2020/12/10 08:18:10;;;;;;;33.83;19.10;;;0.50;99.90;;;;;;4941362;29;20244;-79
2020/12/10 08:20:41;;;;;;;23.90;15.98;;;0.50;99.90;;;;;;4942720;29;20212;-80
2020/12/10 08:23:09;;;;;;;37.97;18.05;;;0.40;99.90;;;;;;4941804;29;20195;-81
2020/12/10 08:25:37;;;;;;;43.75;14.55;;;0.50;99.90;;;;;;4940470;29;20287;-79
2020/12/10 08:28:05;;;;;;;44.05;17.08;;;0.50;99.90;;;;;;4943881;29;20185;-78
2020/12/10 08:30:33;;;;;;;29.60;11.68;;;0.50;99.90;;;;;;4944109;29;20244;-82
2020/12/10 08:33:02;;;;;;;33.97;18.88;;;0.60;99.90;;;;;;4941361;29;20247;-82
2020/12/10 08:35:42;;;;;;;46.75;16.17;;;0.60;99.90;;;;;;4941990;29;20278;-82
2020/12/10 08:38:12;;;;;;;25.33;14.32;;;0.60;99.90;;;;;;4944328;29;20180;-84
2020/12/10 08:40:55;;;;;;;27.58;13.60;;;0.60;99.90;;;;;;4943532;29;20244;-83
2020/12/10 08:43:26;;;;;;;24.55;14.00;;;0.50;99.90;;;;;;4945087;29;20197;-82
2020/12/10 08:45:53;;;;;;;24.25;12.23;;;0.30;99.90;;;;;;4967370;29;20228;-83
2020/12/10 08:48:29;;;;;;;16.95;10.75;;;0.20;99.90;;;;;;4971781;28;20184;-81
2020/12/10 08:51:00;;;;;;;30.17;13.73;;;0.10;99.90;;;;;;4965173;29;20299;-82
2020/12/10 08:53:29;;;;;;;24.65;11.20;;;0.10;99.90;;;;;;4965021;28;20192;-80
2020/12/10 08:56:00;;;;;;;27.90;11.05;;;0.00;99.90;;;;;;4969460;28;20180;-81
2020/12/10 08:58:33;;;;;;;23.08;11.55;;;0.10;99.90;;;;;;4966211;29;20225;-80
2020/12/10 09:01:05;;;;;;;15.75;10.88;;;0.00;99.90;;;;;;4964736;29;20188;-80
2020/12/10 09:03:39;;;;;;;9.40;8.15;;;-0.10;99.90;;;;;;4977612;23;20589;31
2020/12/10 09:06:11;;;;;;;15.32;7.03;;;-0.20;99.90;;;;;;4935237;29;20240;-83
2020/12/10 09:08:40;;;;;;;30.08;16.27;;;-0.10;99.90;;;;;;4921027;29;20253;-83
2020/12/10 09:11:10;;;;;;;27.10;12.68;;;-0.10;99.90;;;;;;4921848;29;20239;-81
2020/12/10 09:13:38;;;;;;;37.97;9.35;;;-0.10;99.90;;;;;;4955141;29;20444;-78
2020/12/10 09:16:06;;;;;;;42.50;16.95;;;0.00;99.90;;;;;;4922383;29;20203;-80
2020/12/10 09:18:34;;;;;;;29.55;16.50;;;0.00;99.90;;;;;;4921428;29;20197;-81
2020/12/10 09:21:01;;;;;;;21.52;12.82;;;-0.10;99.90;;;;;;4929648;29;20201;-80
2020/12/10 09:23:28;;;;;;;36.10;11.10;;;-0.10;99.90;;;;;;4929000;29;20204;-80
2020/12/10 09:25:55;;;;;;;26.40;14.52;;;0.00;99.90;;;;;;4927308;29;20209;-80
2020/12/10 09:28:23;;;;;;;49.30;10.35;;;-0.10;99.90;;;;;;4932415;29;20210;-79
2020/12/10 09:30:51;;;;;;;23.10;12.57;;;-0.10;99.90;;;;;;4930777;29;20221;-79
2020/12/10 09:33:18;;;;;;;16.45;10.50;;;-0.10;99.90;;;;;;4922174;29;20708;-82
2020/12/10 09:35:45;;;;;;;35.05;14.18;;;0.00;99.90;;;;;;4929565;29;20295;-83
2020/12/10 09:38:14;;;;;;;15.40;11.45;;;0.10;99.90;;;;;;4938594;29;20193;-79
2020/12/10 09:40:41;;;;;;;24.05;11.95;;;0.20;99.90;;;;;;4940838;29;20197;-79
2020/12/10 09:43:08;;;;;;;37.00;16.77;;;0.30;99.90;;;;;;4939837;29;20177;-78
2020/12/10 09:45:36;;;;;;;35.78;13.95;;;0.40;99.90;;;;;;4940982;29;20205;-80
2020/12/10 09:48:04;;;;;;;18.05;12.10;;;0.40;99.90;;;;;;4943133;29;20229;-80
2020/12/10 09:50:34;;;;;;;42.35;18.58;;;0.50;99.90;;;;;;4943436;29;20228;-78
2020/12/10 09:53:08;;;;;;;27.00;13.20;;;0.60;99.90;;;;;;4939095;29;20197;-80
2020/12/10 09:58:21;;;;;;;23.15;13.85;;;0.50;99.90;;;;;;4934763;29;20271;-78
2020/12/10 10:00:50;;;;;;;32.35;14.35;;;0.40;99.90;;;;;;4940096;29;20189;-81
2020/12/10 10:03:17;;;;;;;31.98;18.20;;;0.60;99.90;;;;;;4949324;29;20595;-77
2020/12/10 10:05:56;;;;;;;19.33;12.93;;;0.60;99.90;;;;;;4957233;29;20250;-80
2020/12/10 10:08:26;;;;;;;24.60;11.85;;;0.20;99.90;;;;;;4955501;29;20192;-76
2020/12/10 10:10:54;;;;;;;26.33;9.75;;;0.10;99.90;;;;;;4953523;29;20225;-76
2020/12/10 10:13:22;;;;;;;29.83;10.77;;;0.10;99.90;;;;;;4953121;29;20194;-78
2020/12/10 10:15:50;;;;;;;22.38;13.25;;;0.20;99.90;;;;;;4948045;29;20240;-78
2020/12/10 10:18:18;;;;;;;15.90;10.48;;;0.40;99.90;;;;;;4950351;29;20189;-77
2020/12/10 10:20:45;;;;;;;14.50;12.85;;;0.20;99.90;;;;;;4946816;29;20209;-79
2020/12/10 10:23:13;;;;;;;41.70;20.45;;;0.20;99.90;;;;;;4940917;29;20191;-79
2020/12/10 10:25:40;;;;;;;31.17;12.38;;;0.20;99.90;;;;;;4947714;29;20230;-79
2020/12/10 10:28:08;;;;;;;24.95;11.82;;;0.20;99.90;;;;;;4947715;29;20273;-78
2020/12/10 10:30:35;;;;;;;22.75;13.30;;;0.20;99.90;;;;;;4937834;29;20232;-78
2020/12/10 10:33:04;;;;;;;20.17;12.20;;;0.20;99.90;;;;;;4936540;29;20249;-78
2020/12/10 10:35:31;;;;;;;25.02;13.95;;;0.20;99.90;;;;;;4944283;29;20200;-77
2020/12/10 10:37:58;;;;;;;34.47;19.10;;;0.30;99.90;;;;;;4938455;29;20181;-77
2020/12/10 10:40:25;;;;;;;58.83;18.35;;;0.30;99.90;;;;;;4939069;29;20197;-78
2020/12/10 10:42:53;;;;;;;29.17;13.65;;;0.40;99.90;;;;;;4937875;29;20672;-77
2020/12/10 10:45:20;;;;;;;49.70;15.40;;;0.60;99.90;;;;;;4937677;29;20213;-79
2020/12/10 10:47:51;;;;;;;22.65;11.23;;;0.60;99.90;;;;;;4940657;29;20200;-78
2020/12/10 10:50:19;;;;;;;32.70;15.18;;;0.70;99.90;;;;;;4944249;29;20216;-77
2020/12/10 10:52:47;;;;;;;22.13;12.80;;;0.70;99.90;;;;;;4952707;29;20668;-78
2020/12/10 10:55:14;;;;;;;42.55;17.55;;;0.50;99.90;;;;;;4970341;29;20208;-82
2020/12/10 10:57:41;;;;;;;44.08;20.02;;;0.60;99.90;;;;;;4947668;29;20191;-79
2020/12/10 11:00:08;;;;;;;28.55;13.07;;;0.60;99.90;;;;;;4939934;29;20200;-78
2020/12/10 11:02:36;;;;;;;35.00;13.30;;;0.40;99.90;;;;;;4942387;29;20271;-79
2020/12/10 11:05:03;;;;;;;22.27;11.20;;;0.30;99.90;;;;;;4947589;29;20327;-77
2020/12/10 11:07:32;;;;;;;26.75;12.07;;;0.30;99.90;;;;;;4942533;29;20271;-78
2020/12/10 11:09:59;;;;;;;37.33;14.73;;;0.20;99.90;;;;;;4942811;29;20650;-79
2020/12/10 11:12:26;;;;;;;36.10;12.93;;;0.20;99.90;;;;;;4943729;29;20392;-79
2020/12/10 11:14:54;;;;;;;26.88;15.90;;;0.20;99.90;;;;;;4944300;29;20213;-79
2020/12/10 11:17:21;;;;;;;23.33;9.80;;;0.10;99.90;;;;;;4943270;29;20225;-79
2020/12/10 11:19:49;;;;;;;24.23;14.02;;;0.10;99.90;;;;;;4942623;29;20205;-80
2020/12/10 11:22:16;;;;;;;12.82;9.02;;;0.20;99.90;;;;;;4942006;29;20868;-79
2020/12/10 11:24:44;;;;;;;31.13;12.32;;;0.20;99.90;;;;;;4943444;29;20282;-79
2020/12/10 11:27:12;;;;;;;26.88;9.90;;;0.20;99.90;;;;;;4942307;29;20209;-79
2020/12/10 11:29:39;;;;;;;28.38;13.50;;;0.30;99.90;;;;;;4944737;29;20205;-79
2020/12/10 11:32:06;;;;;;;18.40;10.57;;;0.20;99.90;;;;;;4945260;29;20189;-79
2020/12/10 11:34:34;;;;;;;24.55;10.38;;;0.20;99.90;;;;;;4945536;29;20209;-80
2020/12/10 11:37:01;;;;;;;20.88;11.60;;;0.10;99.90;;;;;;4951106;29;20177;-79
2020/12/10 11:39:28;;;;;;;29.67;13.73;;;0.30;99.90;;;;;;4952149;29;20232;-78
2020/12/10 11:41:56;;;;;;;38.88;14.90;;;0.40;99.90;;;;;;4946743;29;20209;-78
2020/12/10 11:44:23;;;;;;;20.05;10.50;;;0.40;99.90;;;;;;4945563;29;20208;-79
2020/12/10 11:46:51;;;;;;;23.50;13.38;;;0.40;99.90;;;;;;4946478;29;20248;-78
2020/12/10 11:49:18;;;;;;;14.10;10.98;;;0.50;99.90;;;;;;4944187;29;20197;-79
2020/12/10 11:51:45;;;;;;;25.27;13.38;;;0.60;99.90;;;;;;4945822;29;20169;-78
2020/12/10 11:54:12;;;;;;;34.22;16.10;;;0.60;99.90;;;;;;4941798;29;20252;-78
2020/12/10 11:56:42;;;;;;;36.70;15.65;;;0.60;99.90;;;;;;4943442;29;20244;-80
2020/12/10 11:59:10;;;;;;;24.65;12.63;;;0.70;99.90;;;;;;4942038;29;20262;-79
2020/12/10 12:01:38;;;;;;;33.22;15.13;;;0.70;99.90;;;;;;4942177;29;20192;-80
2020/12/10 12:04:06;;;;;;;26.23;11.23;;;0.70;99.90;;;;;;4941867;29;20630;-80
2020/12/10 12:06:33;;;;;;;26.02;12.18;;;0.60;99.90;;;;;;4942668;29;20173;-79
2020/12/10 12:09:02;;;;;;;22.77;9.88;;;0.40;99.90;;;;;;4944484;29;20192;-79
2020/12/10 12:11:34;;;;;;;28.33;14.10;;;0.40;99.90;;;;;;4946315;29;20212;-78
2020/12/10 12:14:02;;;;;;;16.65;8.50;;;0.40;99.90;;;;;;4941741;29;20212;-78
2020/12/10 12:16:34;;;;;;;21.52;15.60;;;0.40;99.90;;;;;;4944557;29;20181;-79
2020/12/10 12:19:05;;;;;;;23.95;11.02;;;0.30;99.90;;;;;;4947888;29;20188;-80
2020/12/10 12:21:32;;;;;;;20.58;10.75;;;0.40;99.90;;;;;;4949129;29;20558;-80
2020/12/10 12:24:00;;;;;;;25.63;7.63;;;0.40;99.90;;;;;;4948953;29;20272;-78
2020/12/10 12:26:31;;;;;;;22.40;12.57;;;0.40;99.90;;;;;;4950384;29;20224;-79
2020/12/10 12:29:01;;;;;;;21.48;8.20;;;0.40;99.90;;;;;;4948605;29;20181;-79
2020/12/10 12:31:29;;;;;;;24.90;14.45;;;0.40;99.90;;;;;;4952504;29;20221;-79
2020/12/10 12:34:06;;;;;;;21.10;10.65;;;0.20;99.90;;;;;;4950468;29;20311;-79
2020/12/10 12:36:34;;;;;;;26.65;9.52;;;0.30;99.90;;;;;;4945080;29;20177;-79
2020/12/10 12:39:02;;;;;;;23.48;8.48;;;0.10;99.90;;;;;;4942712;29;20603;-79
2020/12/10 12:41:31;;;;;;;19.80;8.80;;;-0.10;99.90;;;;;;4941473;29;20212;-79
2020/12/10 12:44:00;;;;;;;17.83;12.50;;;-0.10;99.90;;;;;;4940724;29;20307;-79
2020/12/10 12:46:28;;;;;;;16.40;9.23;;;-0.20;99.90;;;;;;4939940;29;20192;-80
2020/12/10 12:48:56;;;;;;;13.38;7.65;;;-0.20;99.90;;;;;;4942172;29;20177;-79
2020/12/10 12:51:29;;;;;;;17.33;5.65;;;-0.20;99.90;;;;;;4943601;29;20570;-80
2020/12/10 12:53:58;;;;;;;22.17;12.30;;;-0.10;99.90;;;;;;4944521;29;20225;-79